Terminal Aerodrome Forecast
Issued by NWS Wilmington, NC

Home | Current Version | Previous Version | Text Only | Print | Product List | Glossary On
Versions: 1 2 3 4 5 6 7 8 9 10 11 12 13 14 15 16 17 18 19 20 21 22
514
FTUS42 KILM 262334
TAFILM
TAF
KILM 262334Z 2700/2724 07005KT P6SM VCSH FEW030 BKN120
     FM270900 08003KT P6SM SCT020 BKN050
     FM271100 04004KT P6SM -DZ BKN020
     FM271500 11006KT P6SM VCSH BKN040
     FM271800 06008KT P6SM VCSH SCT025 BKN050=

USA.gov is the U.S. government's official web portal to all federal, state and local government web resources and services.